Time;durP1;ratioP1;P1;durP2;ratioP2;P2;SDS_P1;SDS_P2;PMS_P1;PMS_P2;Temp;Humidity;BMP_temperature;BMP_pressure;BME280_temperature;BME280_humidity;BME280_pressure;Samples;Min_cycle;Max_cycle;Signal;HPM_P1;HPM_P2
2022/09/30 00:01:25;;;;;;;3.47;3.17;;;;;;;;;;4981559;28;20634;-53
2022/09/30 00:03:52;;;;;;;4.40;3.67;;;;;;;;;;4976983;28;20179;-52
2022/09/30 00:06:19;;;;;;;3.63;3.33;;;;;;;;;;4981133;28;20642;-52
2022/09/30 00:08:46;;;;;;;4.20;3.80;;;;;;;;;;4978536;28;20604;-53
2022/09/30 00:11:15;;;;;;;4.20;3.70;;;;;;;;;;4978047;28;20182;-51
2022/09/30 00:13:41;;;;;;;5.20;3.50;;;;;;;;;;4981112;28;21832;-52
2022/09/30 00:16:09;;;;;;;3.37;3.07;;;;;;;;;;4980589;28;20211;-51
2022/09/30 00:18:35;;;;;;;4.43;3.10;;;;;;;;;;4988434;28;20306;-52
2022/09/30 00:21:01;;;;;;;4.43;3.30;;;;;;;;;;4988634;28;20191;-52
2022/09/30 00:23:27;;;;;;;3.40;3.10;;;;;;;;;;4989376;28;20167;-52
2022/09/30 00:26:01;;;;;;;3.40;3.10;;;;;;;;;;4987282;28;20194;-53
2022/09/30 00:28:34;;;;;;;3.83;3.30;;;;;;;;;;4988964;28;20261;-52
2022/09/30 00:31:01;;;;;;;3.70;3.13;;;;;;;;;;4988860;28;20168;-51
2022/09/30 00:33:34;;;;;;;3.47;3.17;;;;;;;;;;4975004;28;20176;-52
2022/09/30 00:36:00;;;;;;;4.03;3.57;;;;;;;;;;4978303;28;20183;-53
2022/09/30 00:38:26;;;;;;;3.77;3.47;;;;;;;;;;4977518;28;20345;-52
2022/09/30 00:40:52;;;;;;;3.90;3.00;;;;;;;;;;4977925;28;20238;-52
2022/09/30 00:43:22;;;;;;;3.37;3.07;;;;;;;;;;4977014;28;20176;-52
2022/09/30 00:45:48;;;;;;;3.37;3.07;;;;;;;;;;4979241;28;20188;-52
2022/09/30 00:48:18;;;;;;;3.90;3.10;;;;;;;;;;4977487;28;20234;-53
2022/09/30 00:50:47;;;;;;;4.57;3.33;;;;;;;;;;4980436;28;20222;-52
2022/09/30 00:53:13;;;;;;;3.30;3.00;;;;;;;;;;4978492;28;20187;-52
2022/09/30 00:55:39;;;;;;;3.33;3.00;;;;;;;;;;4979685;28;20187;-53
2022/09/30 00:58:10;;;;;;;3.50;3.07;;;;;;;;;;4976515;28;20187;-51
2022/09/30 01:00:36;;;;;;;4.63;2.87;;;;;;;;;;4981507;28;20172;-52
2022/09/30 01:03:03;;;;;;;5.77;3.17;;;;;;;;;;4977162;28;20745;-53
2022/09/30 01:05:32;;;;;;;5.77;3.40;;;;;;;;;;4982147;28;20249;-53
2022/09/30 01:07:59;;;;;;;6.27;3.57;;;;;;;;;;4974389;28;20282;-51
2022/09/30 01:10:25;;;;;;;3.80;2.97;;;;;;;;;;4976912;28;20183;-52
2022/09/30 01:12:57;;;;;;;3.00;2.77;;;;;;;;;;4975606;28;20179;-52
2022/09/30 01:15:29;;;;;;;4.43;3.27;;;;;;;;;;4977157;28;20593;-53
2022/09/30 01:18:10;;;;;;;3.43;3.13;;;;;;;;;;4980837;28;20238;-51
2022/09/30 01:20:45;;;;;;;3.50;3.20;;;;;;;;;;4977382;28;20543;-52
2022/09/30 01:23:21;;;;;;;2.90;2.60;;;;;;;;;;4976251;28;20642;-52
2022/09/30 01:25:53;;;;;;;3.37;3.07;;;;;;;;;;4980405;28;20215;-53
2022/09/30 01:28:42;;;;;;;3.57;3.10;;;;;;;;;;4976816;28;21329;-52
2022/09/30 01:31:11;;;;;;;3.60;3.17;;;;;;;;;;4984360;28;20697;-52
2022/09/30 01:33:37;;;;;;;3.37;3.07;;;;;;;;;;4986927;28;20265;-52
2022/09/30 01:36:15;;;;;;;3.53;3.10;;;;;;;;;;4987972;28;20209;-51
2022/09/30 01:38:47;;;;;;;3.33;3.03;;;;;;;;;;4978459;28;20307;-53
2022/09/30 01:41:30;;;;;;;3.37;2.97;;;;;;;;;;4976923;28;20662;-52
2022/09/30 01:44:09;;;;;;;3.57;3.03;;;;;;;;;;4976061;28;20230;-53
2022/09/30 01:46:51;;;;;;;3.13;2.73;;;;;;;;;;4974649;28;20184;-52
2022/09/30 01:49:24;;;;;;;3.30;3.00;;;;;;;;;;4974151;28;20208;-52
2022/09/30 01:51:53;;;;;;;3.90;3.20;;;;;;;;;;4981249;28;20557;-52
2022/09/30 01:54:26;;;;;;;3.13;2.90;;;;;;;;;;4974132;28;20340;-50
2022/09/30 01:56:58;;;;;;;3.37;3.07;;;;;;;;;;4975202;28;20175;-52
2022/09/30 01:59:26;;;;;;;3.23;2.93;;;;;;;;;;4975652;28;20275;-54
2022/09/30 02:01:55;;;;;;;3.63;3.27;;;;;;;;;;4977860;28;20190;-51
2022/09/30 02:04:28;;;;;;;4.83;3.50;;;;;;;;;;4977041;28;20207;-52
2022/09/30 02:06:56;;;;;;;3.70;3.13;;;;;;;;;;4978696;28;20179;-52
2022/09/30 02:09:28;;;;;;;4.07;3.33;;;;;;;;;;4976951;28;20229;-51
2022/09/30 02:11:55;;;;;;;3.60;3.30;;;;;;;;;;4974921;28;20725;-52
2022/09/30 02:14:31;;;;;;;4.47;3.23;;;;;;;;;;4974779;28;20209;-51
2022/09/30 02:17:03;;;;;;;3.57;3.20;;;;;;;;;;4976198;28;20698;-52
2022/09/30 02:19:29;;;;;;;3.20;2.90;;;;;;;;;;4972340;28;20187;-52
2022/09/30 02:21:59;;;;;;;3.93;2.87;;;;;;;;;;4981482;28;20214;-51
2022/09/30 02:24:26;;;;;;;3.90;3.23;;;;;;;;;;4980323;28;20218;-52
2022/09/30 02:26:55;;;;;;;3.70;3.30;;;;;;;;;;4978936;28;20179;-52
2022/09/30 02:29:26;;;;;;;4.83;3.47;;;;;;;;;;4976778;28;20693;-51
2022/09/30 02:31:55;;;;;;;3.53;3.20;;;;;;;;;;4981876;28;20564;-52
2022/09/30 02:34:28;;;;;;;3.60;3.13;;;;;;;;;;4981131;28;20733;-52
2022/09/30 02:37:01;;;;;;;3.63;2.97;;;;;;;;;;4982586;28;20239;-53
2022/09/30 02:39:51;;;;;;;3.90;3.60;;;;;;;;;;4980861;28;20607;-51
2022/09/30 02:42:19;;;;;;;3.30;2.83;;;;;;;;;;4979708;28;20282;-52
2022/09/30 02:44:50;;;;;;;3.90;3.50;;;;;;;;;;4982047;28;20198;-54
2022/09/30 02:47:33;;;;;;;4.70;3.73;;;;;;;;;;4979776;28;20175;-52
2022/09/30 02:49:59;;;;;;;4.20;3.80;;;;;;;;;;4979981;28;20208;-51
2022/09/30 02:52:32;;;;;;;4.53;3.80;;;;;;;;;;4985320;28;20713;-52
2022/09/30 02:55:16;;;;;;;4.23;3.47;;;;;;;;;;4980061;28;20575;-51
2022/09/30 02:58:01;;;;;;;3.40;3.10;;;;;;;;;;4981816;28;20207;-51
2022/09/30 03:00:28;;;;;;;4.33;3.80;;;;;;;;;;4979713;28;20180;-51
2022/09/30 03:02:56;;;;;;;4.20;3.80;;;;;;;;;;4978551;28;20183;-52
2022/09/30 03:05:23;;;;;;;3.63;3.30;;;;;;;;;;4980739;28;20179;-53
2022/09/30 03:07:49;;;;;;;3.53;3.20;;;;;;;;;;4981137;28;20566;-53
2022/09/30 03:10:16;;;;;;;3.70;3.30;;;;;;;;;;4979525;28;20295;-52
2022/09/30 03:13:05;;;;;;;4.33;3.33;;;;;;;;;;4976857;28;20206;-52
2022/09/30 03:15:36;;;;;;;3.63;3.33;;;;;;;;;;4980874;28;20190;-53
2022/09/30 03:18:11;;;;;;;4.37;3.10;;;;;;;;;;4975631;28;20198;-52
2022/09/30 03:20:45;;;;;;;4.30;3.90;;;;;;;;;;4981021;28;20204;-53
2022/09/30 03:23:20;;;;;;;3.60;3.30;;;;;;;;;;4984269;28;20479;-52
2022/09/30 03:25:58;;;;;;;3.67;3.33;;;;;;;;;;4977239;28;20195;-52
2022/09/30 03:28:27;;;;;;;3.80;3.40;;;;;;;;;;4973701;28;20207;-53
2022/09/30 03:31:11;;;;;;;3.67;3.37;;;;;;;;;;4986331;28;20227;-52
2022/09/30 03:33:44;;;;;;;3.70;3.20;;;;;;;;;;4979066;28;20662;-52
2022/09/30 03:36:24;;;;;;;3.70;3.33;;;;;;;;;;4987079;28;20191;-52
2022/09/30 03:38:57;;;;;;;3.60;3.30;;;;;;;;;;4984520;28;20242;-52
2022/09/30 03:41:29;;;;;;;4.60;3.40;;;;;;;;;;4978808;28;20195;-52
2022/09/30 03:43:55;;;;;;;3.93;3.50;;;;;;;;;;4976517;28;20195;-51
2022/09/30 03:46:28;;;;;;;4.47;3.27;;;;;;;;;;4978843;28;20543;-51
2022/09/30 03:48:56;;;;;;;3.43;3.10;;;;;;;;;;4976196;28;20210;-52
2022/09/30 03:51:24;;;;;;;3.90;3.20;;;;;;;;;;4979503;28;20349;-52
2022/09/30 03:53:52;;;;;;;4.53;3.30;;;;;;;;;;4981633;28;20252;-51
2022/09/30 03:56:33;;;;;;;4.30;3.33;;;;;;;;;;4978107;28;20257;-53
2022/09/30 03:59:00;;;;;;;3.70;3.40;;;;;;;;;;4975656;28;20301;-52
2022/09/30 04:01:26;;;;;;;3.53;3.23;;;;;;;;;;4980942;28;20187;-51
2022/09/30 04:03:52;;;;;;;3.70;3.40;;;;;;;;;;4976590;28;20191;-51
2022/09/30 04:06:22;;;;;;;4.43;3.70;;;;;;;;;;4980048;28;20281;-51
2022/09/30 04:08:49;;;;;;;4.63;3.50;;;;;;;;;;4978372;28;20206;-52
2022/09/30 04:11:15;;;;;;;4.13;3.63;;;;;;;;;;4983404;28;20593;-53
2022/09/30 04:13:44;;;;;;;4.23;3.73;;;;;;;;;;4979862;28;20635;-51
2022/09/30 04:16:10;;;;;;;3.47;3.17;;;;;;;;;;4977807;28;20862;-52
2022/09/30 04:18:39;;;;;;;5.17;3.73;;;;;;;;;;4973736;28;20199;-52
2022/09/30 04:21:06;;;;;;;4.93;4.43;;;;;;;;;;4974501;28;20187;-51
2022/09/30 04:23:39;;;;;;;3.40;2.90;;;;;;;;;;4983193;28;20739;-52
2022/09/30 04:26:06;;;;;;;5.97;3.87;;;;;;;;;;4981730;28;20614;-54
2022/09/30 04:28:32;;;;;;;4.30;3.80;;;;;;;;;;4977530;28;20295;-51
2022/09/30 04:30:59;;;;;;;4.70;3.53;;;;;;;;;;4980720;28;20674;-52
2022/09/30 04:33:26;;;;;;;3.90;3.60;;;;;;;;;;4976467;28;20654;-52
2022/09/30 04:35:53;;;;;;;5.17;3.50;;;;;;;;;;4975368;28;20195;-52
2022/09/30 04:38:20;;;;;;;3.60;3.30;;;;;;;;;;4974431;28;20259;-52
2022/09/30 04:40:48;;;;;;;3.93;3.40;;;;;;;;;;4981275;28;20274;-52
2022/09/30 04:43:15;;;;;;;3.20;2.90;;;;;;;;;;4978570;28;20661;-51
2022/09/30 04:45:43;;;;;;;4.77;3.70;;;;;;;;;;5000240;28;20178;-52
2022/09/30 04:48:09;;;;;;;3.23;3.00;;;;;;;;;;4997287;28;20656;-52
2022/09/30 04:50:40;;;;;;;3.57;3.17;;;;;;;;;;4983623;28;20194;-52
2022/09/30 04:53:07;;;;;;;3.20;2.90;;;;;;;;;;4988649;28;20191;-51
2022/09/30 04:55:34;;;;;;;3.50;3.20;;;;;;;;;;4998237;28;20183;-51
2022/09/30 04:58:00;;;;;;;3.50;3.20;;;;;;;;;;4988661;28;20736;-52
2022/09/30 05:00:26;;;;;;;3.87;3.57;;;;;;;;;;4988768;28;20658;-52
2022/09/30 05:02:52;;;;;;;3.87;3.07;;;;;;;;;;4986275;28;20688;-51
2022/09/30 05:05:18;;;;;;;3.93;3.07;;;;;;;;;;4988145;28;20176;-52
2022/09/30 05:07:45;;;;;;;3.63;3.20;;;;;;;;;;4988986;28;20737;-53
2022/09/30 05:10:11;;;;;;;4.10;3.70;;;;;;;;;;4985313;28;20661;-50
2022/09/30 05:12:39;;;;;;;3.33;3.03;;;;;;;;;;4985345;28;20183;-52
2022/09/30 05:15:09;;;;;;;3.63;3.33;;;;;;;;;;4987439;28;20179;-52
2022/09/30 05:17:35;;;;;;;3.20;2.90;;;;;;;;;;4982167;28;20580;-53
2022/09/30 05:20:01;;;;;;;7.90;4.30;;;;;;;;;;4977722;28;20286;-53
2022/09/30 05:22:28;;;;;;;5.07;4.57;;;;;;;;;;4985321;28;20179;-51
2022/09/30 05:24:55;;;;;;;4.93;3.97;;;;;;;;;;4986015;28;20297;-52
2022/09/30 05:27:21;;;;;;;8.10;4.67;;;;;;;;;;4983120;28;20187;-51
2022/09/30 05:29:47;;;;;;;5.83;4.57;;;;;;;;;;4983713;28;20203;-51
2022/09/30 05:32:21;;;;;;;5.10;4.20;;;;;;;;;;4985300;28;20711;-52
2022/09/30 05:34:49;;;;;;;3.90;3.50;;;;;;;;;;4979605;28;20191;-52
2022/09/30 05:37:16;;;;;;;4.13;3.77;;;;;;;;;;4987641;28;20763;-52
2022/09/30 05:39:49;;;;;;;4.23;3.70;;;;;;;;;;4987755;28;20277;-51
2022/09/30 05:42:15;;;;;;;4.63;3.53;;;;;;;;;;4963674;28;20654;-51
2022/09/30 05:44:44;;;;;;;3.93;3.63;;;;;;;;;;4988560;28;20207;-52
2022/09/30 05:47:12;;;;;;;4.07;3.67;;;;;;;;;;4987359;28;20314;-53
2022/09/30 05:49:40;;;;;;;5.47;3.70;;;;;;;;;;4988363;28;20192;-53
2022/09/30 05:52:06;;;;;;;4.60;4.10;;;;;;;;;;4988160;28;20183;-52
2022/09/30 05:54:32;;;;;;;4.53;3.93;;;;;;;;;;4987669;28;20187;-51
2022/09/30 05:56:59;;;;;;;4.23;3.83;;;;;;;;;;4986474;28;20187;-52
2022/09/30 05:59:25;;;;;;;3.80;3.50;;;;;;;;;;4983060;28;20646;-51
2022/09/30 06:01:52;;;;;;;4.23;3.50;;;;;;;;;;4985552;28;20664;-52
2022/09/30 06:04:20;;;;;;;4.23;3.80;;;;;;;;;;4968758;28;20203;-51
2022/09/30 06:06:47;;;;;;;4.00;3.50;;;;;;;;;;4982980;28;20188;-53
2022/09/30 06:09:16;;;;;;;3.57;3.17;;;;;;;;;;4986696;28;20591;-52
2022/09/30 06:11:42;;;;;;;4.67;4.20;;;;;;;;;;4984567;28;20187;-52
2022/09/30 06:14:08;;;;;;;4.10;3.53;;;;;;;;;;4987811;28;20221;-51
2022/09/30 06:16:35;;;;;;;4.07;3.50;;;;;;;;;;4984605;28;20653;-52
2022/09/30 06:19:01;;;;;;;4.00;3.60;;;;;;;;;;4984218;28;20186;-51
2022/09/30 06:21:27;;;;;;;5.83;3.70;;;;;;;;;;5002440;28;20236;-51
2022/09/30 06:23:54;;;;;;;5.20;3.60;;;;;;;;;;5007295;28;20209;-51
2022/09/30 06:26:20;;;;;;;6.80;3.73;;;;;;;;;;4991475;28;20180;-52
2022/09/30 06:28:46;;;;;;;4.50;4.10;;;;;;;;;;4988237;28;20206;-51
2022/09/30 06:31:12;;;;;;;3.87;3.50;;;;;;;;;;4985732;28;20191;-50
2022/09/30 06:33:45;;;;;;;4.07;3.67;;;;;;;;;;4984706;28;20171;-51
2022/09/30 06:36:18;;;;;;;3.50;3.20;;;;;;;;;;4987403;28;20168;-51
2022/09/30 06:38:44;;;;;;;4.00;3.50;;;;;;;;;;4989618;28;20214;-51
2022/09/30 06:41:10;;;;;;;3.90;3.47;;;;;;;;;;4985594;28;20194;-52
2022/09/30 06:43:36;;;;;;;6.13;3.63;;;;;;;;;;4986836;28;20634;-52
2022/09/30 06:46:02;;;;;;;4.03;3.67;;;;;;;;;;4987623;28;20179;-53
2022/09/30 06:48:29;;;;;;;3.70;3.40;;;;;;;;;;4991953;28;20464;-51
2022/09/30 06:50:57;;;;;;;3.37;3.07;;;;;;;;;;4988965;28;20681;-51
2022/09/30 06:53:23;;;;;;;3.43;3.07;;;;;;;;;;4980170;28;20183;-51
2022/09/30 06:55:54;;;;;;;4.17;3.03;;;;;;;;;;4986528;28;20611;-51
2022/09/30 06:58:21;;;;;;;3.70;3.40;;;;;;;;;;4984279;28;20183;-52
2022/09/30 07:01:00;;;;;;;4.00;3.70;;;;;;;;;;4982597;28;20241;-52
2022/09/30 07:03:28;;;;;;;4.67;3.57;;;;;;;;;;4986705;28;20163;-50
2022/09/30 07:05:56;;;;;;;4.97;3.40;;;;;;;;;;4989160;28;20183;-51
2022/09/30 07:08:24;;;;;;;4.27;3.40;;;;;;;;;;4991108;28;20689;-51
2022/09/30 07:10:50;;;;;;;4.20;3.80;;;;;;;;;;4992365;28;20182;-51
2022/09/30 07:13:17;;;;;;;4.30;3.43;;;;;;;;;;4991129;28;20183;-50
2022/09/30 07:15:43;;;;;;;4.13;3.60;;;;;;;;;;4991367;28;20178;-50
2022/09/30 07:18:09;;;;;;;6.70;4.30;;;;;;;;;;4989363;28;20629;-51
2022/09/30 07:20:35;;;;;;;4.37;3.97;;;;;;;;;;4991366;28;20175;-51
2022/09/30 07:23:01;;;;;;;3.50;3.10;;;;;;;;;;4994330;28;20635;-51
2022/09/30 07:25:27;;;;;;;4.50;4.10;;;;;;;;;;4996588;28;20240;-49
2022/09/30 07:27:54;;;;;;;4.37;3.97;;;;;;;;;;4993908;28;20183;-51
2022/09/30 07:30:20;;;;;;;4.83;4.40;;;;;;;;;;4988590;28;20207;-50
2022/09/30 07:32:47;;;;;;;4.60;4.20;;;;;;;;;;4986891;28;20179;-51
2022/09/30 07:35:13;;;;;;;4.40;4.00;;;;;;;;;;4973707;28;20203;-51
2022/09/30 07:37:39;;;;;;;5.43;4.27;;;;;;;;;;4987006;28;20203;-52
2022/09/30 07:40:06;;;;;;;4.83;4.33;;;;;;;;;;4990806;28;20293;-51
2022/09/30 07:42:33;;;;;;;4.70;4.13;;;;;;;;;;4988898;28;20670;-51
2022/09/30 07:45:00;;;;;;;4.90;4.40;;;;;;;;;;4970287;28;20187;-51
2022/09/30 07:47:26;;;;;;;6.40;4.83;;;;;;;;;;4984009;28;20629;-52
2022/09/30 07:49:52;;;;;;;6.37;4.77;;;;;;;;;;4989949;28;20214;-52
2022/09/30 07:52:18;;;;;;;5.07;4.30;;;;;;;;;;4989317;28;20527;-51
2022/09/30 07:54:44;;;;;;;5.70;5.10;;;;;;;;;;4989443;28;20853;-51
2022/09/30 07:57:11;;;;;;;5.77;5.17;;;;;;;;;;4989902;28;20190;-51
2022/09/30 07:59:38;;;;;;;5.00;4.53;;;;;;;;;;4990422;28;20199;-51
2022/09/30 08:02:05;;;;;;;6.87;4.47;;;;;;;;;;4989982;28;20218;-52
2022/09/30 08:04:32;;;;;;;5.30;4.73;;;;;;;;;;4989557;28;20504;-51
2022/09/30 08:06:59;;;;;;;5.20;4.63;;;;;;;;;;4989567;28;21777;-51
2022/09/30 08:09:26;;;;;;;5.77;5.23;;;;;;;;;;4989205;28;20638;-51
2022/09/30 08:11:52;;;;;;;5.83;5.07;;;;;;;;;;4985225;28;20187;-51
2022/09/30 08:14:22;;;;;;;6.97;4.83;;;;;;;;;;4988734;28;20187;-50
2022/09/30 08:16:49;;;;;;;8.13;6.03;;;;;;;;;;4988680;28;20575;-49
2022/09/30 08:19:17;;;;;;;5.73;5.03;;;;;;;;;;4988235;28;20245;-51
2022/09/30 08:21:43;;;;;;;6.17;5.57;;;;;;;;;;4989728;28;20191;-51
2022/09/30 08:24:09;;;;;;;8.37;6.70;;;;;;;;;;4989843;28;20249;-53
2022/09/30 08:26:36;;;;;;;6.60;5.90;;;;;;;;;;4976987;28;20188;-51
2022/09/30 08:29:02;;;;;;;8.93;6.33;;;;;;;;;;4986058;28;20219;-51
2022/09/30 08:31:29;;;;;;;7.90;6.40;;;;;;;;;;4987980;28;20175;-51
2022/09/30 08:33:58;;;;;;;8.20;6.17;;;;;;;;;;4988810;28;20758;-50
2022/09/30 08:36:28;;;;;;;8.80;6.80;;;;;;;;;;4989959;28;20186;-52
2022/09/30 08:38:54;;;;;;;8.57;7.70;;;;;;;;;;4996089;28;20678;-50
2022/09/30 08:41:39;;;;;;;10.00;8.33;;;;;;;;;;4985711;28;20535;-52
2022/09/30 08:44:24;;;;;;;7.83;6.97;;;;;;;;;;4989501;28;20465;-51
2022/09/30 08:47:08;;;;;;;7.67;6.47;;;;;;;;;;4989024;28;20195;-51
2022/09/30 08:49:37;;;;;;;9.57;7.30;;;;;;;;;;4988765;28;20218;-53
2022/09/30 08:52:04;;;;;;;7.67;6.87;;;;;;;;;;4986792;28;20527;-50
2022/09/30 08:54:33;;;;;;;7.10;6.40;;;;;;;;;;4989245;28;20218;-50
2022/09/30 08:57:01;;;;;;;8.93;7.87;;;;;;;;;;4988278;28;20544;-51
2022/09/30 08:59:47;;;;;;;9.33;7.30;;;;;;;;;;4988979;28;20626;-51
2022/09/30 09:02:28;;;;;;;7.80;7.00;;;;;;;;;;4987892;28;20273;-50
2022/09/30 09:04:58;;;;;;;7.93;6.87;;;;;;;;;;4987591;28;20221;-50
2022/09/30 09:07:24;;;;;;;10.07;7.27;;;;;;;;;;4988135;28;20186;-51
2022/09/30 09:10:16;;;;;;;8.70;7.63;;;;;;;;;;4988976;28;20203;-51
2022/09/30 09:12:45;;;;;;;9.40;8.53;;;;;;;;;;4967258;28;20203;-51
2022/09/30 09:15:11;;;;;;;8.83;7.93;;;;;;;;;;4988013;28;20183;-51
2022/09/30 09:18:00;;;;;;;12.80;6.97;;;;;;;;;;4987279;28;20194;-53
2022/09/30 09:20:31;;;;;;;8.33;6.83;;;;;;;;;;4988475;28;20218;-51
2022/09/30 09:22:57;;;;;;;10.33;7.90;;;;;;;;;;4988285;28;20191;-51
2022/09/30 09:25:28;;;;;;;9.83;8.33;;;;;;;;;;4987249;28;20662;-51
2022/09/30 09:28:05;;;;;;;10.97;8.53;;;;;;;;;;4969933;28;20198;-51
2022/09/30 09:30:41;;;;;;;10.20;8.27;;;;;;;;;;4989752;28;20238;-52
2022/09/30 09:33:22;;;;;;;8.67;7.80;;;;;;;;;;4987152;28;20208;-51
2022/09/30 09:35:53;;;;;;;10.00;8.37;;;;;;;;;;4987177;28;20733;-51
2022/09/30 09:38:26;;;;;;;9.60;8.70;;;;;;;;;;4984709;28;20283;-52
2022/09/30 09:41:01;;;;;;;9.97;8.97;;;;;;;;;;4985606;28;20721;-51
2022/09/30 09:43:34;;;;;;;10.67;9.37;;;;;;;;;;4988678;28;20308;-50
2022/09/30 09:45:59;;;;;;;11.80;9.10;;;;;;;;;;4978099;28;20534;-51
2022/09/30 09:48:26;;;;;;;14.27;9.63;;;;;;;;;;4984105;28;20256;-53
2022/09/30 09:51:03;;;;;;;11.50;10.40;;;;;;;;;;4992218;28;20788;-51
2022/09/30 09:53:38;;;;;;;11.97;9.17;;;;;;;;;;5002379;28;20236;-53
2022/09/30 09:56:17;;;;;;;13.20;10.20;;;;;;;;;;4985822;28;20626;-52
2022/09/30 09:59:02;;;;;;;13.43;10.37;;;;;;;;;;4986426;28;20646;-52
2022/09/30 10:01:33;;;;;;;12.10;10.83;;;;;;;;;;4976329;28;20242;-52
2022/09/30 10:04:14;;;;;;;11.87;10.63;;;;;;;;;;4984681;28;20183;-51
2022/09/30 10:06:50;;;;;;;12.00;9.97;;;;;;;;;;4969223;28;20183;-51
2022/09/30 10:09:24;;;;;;;12.20;9.67;;;;;;;;;;4986677;28;20609;-52
2022/09/30 10:11:50;;;;;;;11.80;10.07;;;;;;;;;;4986818;28;20178;-52
2022/09/30 10:14:21;;;;;;;12.23;10.23;;;;;;;;;;4986671;28;20194;-54
2022/09/30 10:16:47;;;;;;;9.47;8.20;;;;;;;;;;4983705;28;20183;-51
2022/09/30 10:19:22;;;;;;;12.60;10.53;;;;;;;;;;4983626;28;20187;-52
2022/09/30 10:21:48;;;;;;;10.07;9.07;;;;;;;;;;4990282;28;20238;-52
2022/09/30 10:24:19;;;;;;;12.63;9.40;;;;;;;;;;4983342;28;20179;-52
2022/09/30 10:26:46;;;;;;;11.43;9.60;;;;;;;;;;4982637;28;20670;-51
2022/09/30 10:29:31;;;;;;;12.77;9.80;;;;;;;;;;4980247;28;20258;-52
2022/09/30 10:32:01;;;;;;;10.33;9.33;;;;;;;;;;4985735;28;20186;-51
2022/09/30 10:34:35;;;;;;;11.20;9.03;;;;;;;;;;4990488;28;20183;-53
2022/09/30 10:37:06;;;;;;;11.77;10.57;;;;;;;;;;4979816;28;20208;-53
2022/09/30 10:39:37;;;;;;;11.30;9.50;;;;;;;;;;4994902;28;20219;-51
2022/09/30 10:42:23;;;;;;;9.43;8.40;;;;;;;;;;4989059;28;20633;-51
2022/09/30 10:44:54;;;;;;;9.67;8.67;;;;;;;;;;4971979;28;20278;-51
2022/09/30 10:47:21;;;;;;;10.07;8.83;;;;;;;;;;4975070;28;20568;-52
2022/09/30 10:49:48;;;;;;;9.90;8.90;;;;;;;;;;5004308;28;20210;-51
2022/09/30 10:52:19;;;;;;;8.47;7.77;;;;;;;;;;4994820;28;20187;-51
2022/09/30 10:54:50;;;;;;;9.60;8.63;;;;;;;;;;4999991;28;20595;-51
2022/09/30 10:57:31;;;;;;;9.00;8.13;;;;;;;;;;4982881;28;20229;-51
2022/09/30 11:00:03;;;;;;;9.87;8.87;;;;;;;;;;4997144;28;20191;-52
2022/09/30 11:02:34;;;;;;;8.70;7.90;;;;;;;;;;4998354;28;20186;-51
2022/09/30 11:05:09;;;;;;;10.20;8.83;;;;;;;;;;4984943;28;20463;-51
2022/09/30 11:07:45;;;;;;;10.27;8.90;;;;;;;;;;4981529;28;20642;-52
2022/09/30 11:10:20;;;;;;;14.47;10.63;;;;;;;;;;4984229;28;20198;-51
2022/09/30 11:12:51;;;;;;;11.57;9.67;;;;;;;;;;4978389;28;20234;-51
2022/09/30 11:15:23;;;;;;;10.83;9.73;;;;;;;;;;4990978;28;20194;-51
2022/09/30 11:17:55;;;;;;;10.67;9.60;;;;;;;;;;4980296;28;20207;-53
2022/09/30 11:20:26;;;;;;;11.80;9.83;;;;;;;;;;4986948;28;20240;-52
2022/09/30 11:22:56;;;;;;;10.10;9.03;;;;;;;;;;4979930;28;20188;-52
2022/09/30 11:25:41;;;;;;;10.07;9.07;;;;;;;;;;4981639;28;20191;-52
2022/09/30 11:28:15;;;;;;;11.70;10.43;;;;;;;;;;4981936;28;20202;-52
2022/09/30 11:30:50;;;;;;;12.47;10.20;;;;;;;;;;5002513;28;20211;-51
2022/09/30 11:33:22;;;;;;;11.07;9.20;;;;;;;;;;4968619;28;20178;-51
2022/09/30 11:35:59;;;;;;;10.30;9.30;;;;;;;;;;4976000;28;20279;-51
2022/09/30 11:38:40;;;;;;;10.33;9.43;;;;;;;;;;4985982;28;20202;-50
2022/09/30 11:41:19;;;;;;;11.30;9.40;;;;;;;;;;4968834;28;20223;-51
2022/09/30 11:44:00;;;;;;;9.57;8.60;;;;;;;;;;4970173;28;20192;-52
2022/09/30 11:46:35;;;;;;;11.60;8.27;;;;;;;;;;4961103;28;20183;-51
2022/09/30 11:49:01;;;;;;;11.83;7.43;;;;;;;;;;4961333;28;20208;-51
2022/09/30 11:51:36;;;;;;;7.70;6.90;;;;;;;;;;4971209;28;20186;-53
2022/09/30 11:54:20;;;;;;;7.40;6.67;;;;;;;;;;4967394;28;20267;-52
2022/09/30 11:56:52;;;;;;;9.47;7.20;;;;;;;;;;4964544;28;20190;-52
2022/09/30 11:59:30;;;;;;;11.43;7.53;;;;;;;;;;4967030;28;20188;-52
2022/09/30 12:01:59;;;;;;;7.20;6.50;;;;;;;;;;4967894;28;20603;-53
2022/09/30 12:04:30;;;;;;;7.37;6.13;;;;;;;;;;4969073;28;20347;-50
2022/09/30 12:07:05;;;;;;;8.20;6.47;;;;;;;;;;4965474;28;20210;-52
2022/09/30 12:09:38;;;;;;;11.07;7.27;;;;;;;;;;4964134;28;20198;-50
2022/09/30 12:12:05;;;;;;;7.57;6.90;;;;;;;;;;4961535;28;20184;-51
2022/09/30 12:14:49;;;;;;;8.97;6.97;;;;;;;;;;4966537;28;20167;-51
2022/09/30 12:17:31;;;;;;;7.03;6.43;;;;;;;;;;4964764;28;20639;-52
2022/09/30 12:20:17;;;;;;;9.63;5.70;;;;;;;;;;4962753;28;20739;-52
2022/09/30 12:22:44;;;;;;;6.13;5.50;;;;;;;;;;4964592;28;20655;-51
2022/09/30 12:25:13;;;;;;;6.03;5.40;;;;;;;;;;4966514;28;20183;-52
2022/09/30 12:27:44;;;;;;;7.70;5.60;;;;;;;;;;4964361;28;20184;-52
2022/09/30 12:30:21;;;;;;;5.53;4.70;;;;;;;;;;4961301;28;20258;-51
2022/09/30 12:33:08;;;;;;;6.20;5.60;;;;;;;;;;4966749;28;20179;-52
2022/09/30 12:35:35;;;;;;;6.00;5.50;;;;;;;;;;4958159;28;20278;-51
2022/09/30 12:38:10;;;;;;;6.10;5.50;;;;;;;;;;4968902;28;20295;-51
2022/09/30 12:40:39;;;;;;;5.90;5.30;;;;;;;;;;4982805;28;20588;-52
2022/09/30 12:43:24;;;;;;;5.80;5.23;;;;;;;;;;4984730;28;20249;-51
2022/09/30 12:46:03;;;;;;;5.43;4.93;;;;;;;;;;4988262;28;20663;-51
2022/09/30 12:48:36;;;;;;;6.17;5.47;;;;;;;;;;4982640;28;20179;-51
2022/09/30 12:51:03;;;;;;;4.97;4.47;;;;;;;;;;4987860;28;20182;-52
2022/09/30 12:53:34;;;;;;;5.00;4.60;;;;;;;;;;4986728;28;20186;-52
2022/09/30 12:56:11;;;;;;;4.63;4.03;;;;;;;;;;4986144;28;20187;-52
2022/09/30 12:58:42;;;;;;;4.90;4.50;;;;;;;;;;4983523;28;20194;-52
2022/09/30 13:01:13;;;;;;;5.50;4.50;;;;;;;;;;4988248;28;20434;-52
2022/09/30 13:03:44;;;;;;;4.57;4.17;;;;;;;;;;4966076;28;20182;-53
2022/09/30 13:06:10;;;;;;;4.87;4.07;;;;;;;;;;4984483;28;20552;-52
2022/09/30 13:08:42;;;;;;;4.50;4.20;;;;;;;;;;4986172;28;20528;-53
2022/09/30 13:11:30;;;;;;;3.40;3.20;;;;;;;;;;4979235;28;20197;-52
2022/09/30 13:13:59;;;;;;;6.47;4.63;;;;;;;;;;4977892;28;20582;-53
2022/09/30 13:16:46;;;;;;;4.60;4.20;;;;;;;;;;4990194;28;20619;-53
2022/09/30 13:19:20;;;;;;;5.83;4.30;;;;;;;;;;4982130;28;20183;-54
2022/09/30 13:21:46;;;;;;;4.40;3.63;;;;;;;;;;4984873;28;20288;-54
2022/09/30 13:24:16;;;;;;;7.10;3.70;;;;;;;;;;4982947;28;20187;-54
2022/09/30 13:26:47;;;;;;;6.30;4.10;;;;;;;;;;4992603;28;20183;-53
2022/09/30 13:29:13;;;;;;;5.33;4.87;;;;;;;;;;4981518;28;20235;-54
2022/09/30 13:31:45;;;;;;;4.40;4.00;;;;;;;;;;4985954;28;20670;-53
2022/09/30 13:34:14;;;;;;;5.27;4.57;;;;;;;;;;4980143;28;20184;-54
2022/09/30 13:36:41;;;;;;;3.70;3.40;;;;;;;;;;4979222;28;20654;-54
2022/09/30 13:39:16;;;;;;;4.20;3.80;;;;;;;;;;4987659;28;21994;-53
2022/09/30 13:41:43;;;;;;;4.43;4.03;;;;;;;;;;4988446;28;20197;-53
2022/09/30 13:44:28;;;;;;;4.20;3.77;;;;;;;;;;4987933;28;20183;-54
2022/09/30 13:46:56;;;;;;;6.03;4.30;;;;;;;;;;4986963;28;20175;-53
2022/09/30 13:49:34;;;;;;;4.60;4.20;;;;;;;;;;4986011;28;20214;-54
2022/09/30 13:52:02;;;;;;;4.67;4.27;;;;;;;;;;4994926;28;20182;-53
2022/09/30 13:54:28;;;;;;;5.10;4.70;;;;;;;;;;4986106;28;20197;-54
2022/09/30 13:56:55;;;;;;;5.73;4.20;;;;;;;;;;4985775;28;20190;-54
2022/09/30 13:59:40;;;;;;;4.90;4.40;;;;;;;;;;4983253;28;20183;-54
2022/09/30 14:02:06;;;;;;;5.03;4.63;;;;;;;;;;4987012;28;20186;-53
2022/09/30 14:04:39;;;;;;;4.63;4.23;;;;;;;;;;4994986;28;20197;-53
2022/09/30 14:07:12;;;;;;;5.40;4.90;;;;;;;;;;4997142;28;20492;-53
2022/09/30 14:09:46;;;;;;;4.97;4.57;;;;;;;;;;4985824;28;20212;-54
2022/09/30 14:12:24;;;;;;;4.73;4.33;;;;;;;;;;4987273;28;20661;-54
2022/09/30 14:15:05;;;;;;;4.87;3.93;;;;;;;;;;4983115;28;20183;-53
2022/09/30 14:18:10;;;;;;;4.60;4.10;;;;;;;;;;5006519;28;20178;-54
2022/09/30 14:20:54;;;;;;;4.33;3.93;;;;;;;;;;4952857;28;20541;-53
2022/09/30 14:23:21;;;;;;;5.97;5.47;;;;;;;;;;4960269;28;20239;-54
2022/09/30 14:25:56;;;;;;;4.67;4.17;;;;;;;;;;4976823;28;20210;-53
2022/09/30 14:28:35;;;;;;;4.50;4.10;;;;;;;;;;4986874;28;20253;-54
2022/09/30 14:31:07;;;;;;;4.93;4.53;;;;;;;;;;4992608;28;20206;-54
2022/09/30 14:33:34;;;;;;;4.87;4.33;;;;;;;;;;4989350;28;20638;-53
2022/09/30 14:36:01;;;;;;;4.93;4.17;;;;;;;;;;4992247;28;20657;-53
2022/09/30 14:38:29;;;;;;;7.67;4.23;;;;;;;;;;5007158;28;20732;-53
2022/09/30 14:41:07;;;;;;;6.03;4.67;;;;;;;;;;4991443;28;20230;-53
2022/09/30 14:43:35;;;;;;;3.60;3.30;;;;;;;;;;4968622;28;20737;-53
2022/09/30 14:46:15;;;;;;;3.63;3.20;;;;;;;;;;4985356;28;20201;-53
2022/09/30 14:48:44;;;;;;;4.07;3.77;;;;;;;;;;4983580;28;20175;-53
2022/09/30 14:51:11;;;;;;;5.53;4.10;;;;;;;;;;4982453;28;20668;-53
2022/09/30 14:53:51;;;;;;;3.87;3.57;;;;;;;;;;4980395;28;20217;-52
2022/09/30 14:56:21;;;;;;;7.37;3.40;;;;;;;;;;4982652;28;20669;-53
2022/09/30 14:58:51;;;;;;;3.90;3.00;;;;;;;;;;4981994;28;20175;-53
2022/09/30 15:01:19;;;;;;;4.07;3.67;;;;;;;;;;4982597;28;20713;-53
2022/09/30 15:03:54;;;;;;;3.67;3.30;;;;;;;;;;4984198;28;20522;-53